sensor_id;sensor_type;location;lat;lon;timestamp;pressure;altitude;pressure_sealevel;temperature;humidity
54459;BME280;40368;49.350;8.152;2022-12-07T00:01:04;1003.5;;;10;53.95
54459;BME280;40368;49.350;8.152;2022-12-07T00:02:14;1003.5;;;10.01;54.2
54459;BME280;40368;49.350;8.152;2022-12-07T00:02:51;1003.5;;;9.99;53.83
54459;BME280;40368;49.350;8.152;2022-12-07T00:04:05;1003.4;;;9.97;53.78
54459;BME280;40368;49.350;8.152;2022-12-07T00:04:42;1003.5;;;9.99;53.85
54459;BME280;40368;49.350;8.152;2022-12-07T00:05:56;1003.5;;;9.97;53.73
54459;BME280;40368;49.350;8.152;2022-12-07T00:07:10;1003.4;;;10.05;53.94
54459;BME280;40368;49.350;8.152;2022-12-07T00:07:47;1003.5;;;10;54.59
54459;BME280;40368;49.350;8.152;2022-12-07T00:09:02;1003.4;;;10.09;54.15
54459;BME280;40368;49.350;8.152;2022-12-07T00:10:16;1003.4;;;10.18;53.92
54459;BME280;40368;49.350;8.152;2022-12-07T00:10:53;1003.4;;;10.14;54.2
54459;BME280;40368;49.350;8.152;2022-12-07T00:12:07;1003.4;;;10.18;53.49
54459;BME280;40368;49.350;8.152;2022-12-07T00:12:44;1003.4;;;10.18;53.3
54459;BME280;40368;49.350;8.152;2022-12-07T00:13:59;1003.3;;;10.2;53.69
54459;BME280;40368;49.350;8.152;2022-12-07T00:15:12;1003.4;;;10.27;53.59
54459;BME280;40368;49.350;8.152;2022-12-07T00:15:49;1003.3;;;10.24;54.31
54459;BME280;40368;49.350;8.152;2022-12-07T00:17:03;1003.3;;;10.26;53.73
54459;BME280;40368;49.350;8.152;2022-12-07T00:17:40;1003.3;;;10.28;53.72
54459;BME280;40368;49.350;8.152;2022-12-07T00:18:55;1003.3;;;10.22;52.93
54459;BME280;40368;49.350;8.152;2022-12-07T00:20:09;1003.3;;;10.1;53.9
54459;BME280;40368;49.350;8.152;2022-12-07T00:20:46;1003.3;;;10.17;53.09
54459;BME280;40368;49.350;8.152;2022-12-07T00:22:00;1003.3;;;10.13;53.98
54459;BME280;40368;49.350;8.152;2022-12-07T00:23:14;1003.2;;;10.14;54.12
54459;BME280;40368;49.350;8.152;2022-12-07T00:23:51;1003.3;;;10.16;53.62
54459;BME280;40368;49.350;8.152;2022-12-07T00:25:05;1003.2;;;10.17;53.95
54459;BME280;40368;49.350;8.152;2022-12-07T00:25:42;1003.2;;;10.14;53.98
54459;BME280;40368;49.350;8.152;2022-12-07T00:26:56;1003.2;;;10.21;54
54459;BME280;40368;49.350;8.152;2022-12-07T00:28:10;1003.2;;;10.22;53.77
54459;BME280;40368;49.350;8.152;2022-12-07T00:28:48;1003.2;;;10.24;53.57
54459;BME280;40368;49.350;8.152;2022-12-07T00:30:02;1003.2;;;10.22;53.31
54459;BME280;40368;49.350;8.152;2022-12-07T00:31:16;1003.2;;;10.14;53.59
54459;BME280;40368;49.350;8.152;2022-12-07T00:31:53;1003.2;;;10.18;53.74
54459;BME280;40368;49.350;8.152;2022-12-07T00:33:07;1003.2;;;10.12;53.69
54459;BME280;40368;49.350;8.152;2022-12-07T00:33:44;1003.2;;;10.17;53.83
54459;BME280;40368;49.350;8.152;2022-12-07T00:34:58;1003.2;;;10.09;53.89
54459;BME280;40368;49.350;8.152;2022-12-07T00:36:13;1003.2;;;10.06;53.84
54459;BME280;40368;49.350;8.152;2022-12-07T00:36:49;1003.1;;;10.06;53.88
54459;BME280;40368;49.350;8.152;2022-12-07T00:38:03;1003.2;;;10.04;54.23
54459;BME280;40368;49.350;8.152;2022-12-07T00:38:41;1003.2;;;10.04;54.03
54459;BME280;40368;49.350;8.152;2022-12-07T00:39:55;1003.2;;;10.05;54.34
54459;BME280;40368;49.350;8.152;2022-12-07T00:41:10;1003;;;9.93;54.15
54459;BME280;40368;49.350;8.152;2022-12-07T00:41:46;1003.2;;;10.04;54.6
54459;BME280;40368;49.350;8.152;2022-12-07T00:43:00;1003.1;;;9.96;53.69
54459;BME280;40368;49.350;8.152;2022-12-07T00:44:14;1003.1;;;9.91;54.03
54459;BME280;40368;49.350;8.152;2022-12-07T00:44:51;1003.1;;;9.93;54.29
54459;BME280;40368;49.350;8.152;2022-12-07T00:46:05;1003.1;;;9.87;54.2
54459;BME280;40368;49.350;8.152;2022-12-07T00:46:43;1003.1;;;9.88;54.51
54459;BME280;40368;49.350;8.152;2022-12-07T00:47:56;1003.1;;;9.85;54.57
54459;BME280;40368;49.350;8.152;2022-12-07T00:49:10;1003.1;;;9.85;54.54
54459;BME280;40368;49.350;8.152;2022-12-07T00:50:54;1003.1;;;9.91;54.61
54459;BME280;40368;49.350;8.152;2022-12-07T00:52:08;1003.1;;;9.93;54.51
54459;BME280;40368;49.350;8.152;2022-12-07T00:52:45;1003.1;;;9.95;53.85
54459;BME280;40368;49.350;8.152;2022-12-07T00:53:59;1003.1;;;9.97;54.05
54459;BME280;40368;49.350;8.152;2022-12-07T00:55:13;1003.2;;;10.04;54.46
54459;BME280;40368;49.350;8.152;2022-12-07T00:55:50;1003.1;;;9.99;54.23
54459;BME280;40368;49.350;8.152;2022-12-07T00:57:04;1003.2;;;10.14;53.9
54459;BME280;40368;49.350;8.152;2022-12-07T00:57:41;1003.2;;;10.1;54
54459;BME280;40368;49.350;8.152;2022-12-07T00:58:56;1003.1;;;10.16;53.96
54459;BME280;40368;49.350;8.152;2022-12-07T01:00:10;1003.1;;;10.22;53.78
54459;BME280;40368;49.350;8.152;2022-12-07T01:00:46;1003.1;;;10.18;53.88
54459;BME280;40368;49.350;8.152;2022-12-07T01:02:01;1003.1;;;10.25;53.28
54459;BME280;40368;49.350;8.152;2022-12-07T01:03:15;1003.1;;;10.31;53.59
54459;BME280;40368;49.350;8.152;2022-12-07T01:03:52;1003.1;;;10.28;53.98
54459;BME280;40368;49.350;8.152;2022-12-07T01:05:06;1003.1;;;10.34;53.54
54459;BME280;40368;49.350;8.152;2022-12-07T01:05:49;1003.1;;;10.32;53.6
54459;BME280;40368;49.350;8.152;2022-12-07T01:06:57;1003;;;10.35;53.17
54459;BME280;40368;49.350;8.152;2022-12-07T01:08:11;1003.1;;;10.34;53.5
54459;BME280;40368;49.350;8.152;2022-12-07T01:08:48;1003.1;;;10.34;53.54
54459;BME280;40368;49.350;8.152;2022-12-07T01:10:03;1003.1;;;10.34;53.46
54459;BME280;40368;49.350;8.152;2022-12-07T01:11:18;1003.1;;;10.34;53.51
54459;BME280;40368;49.350;8.152;2022-12-07T01:11:54;1003.2;;;10.34;53.47
54459;BME280;40368;49.350;8.152;2022-12-07T01:13:08;1003.2;;;10.34;53.09
54459;BME280;40368;49.350;8.152;2022-12-07T01:13:45;1003.2;;;10.34;53.1
54459;BME280;40368;49.350;8.152;2022-12-07T01:14:59;1003.1;;;10.32;53.5
54459;BME280;40368;49.350;8.152;2022-12-07T01:16:14;1003.1;;;10.34;53.54
54459;BME280;40368;49.350;8.152;2022-12-07T01:16:50;1003.1;;;10.32;53.47
54459;BME280;40368;49.350;8.152;2022-12-07T01:18:04;1003.1;;;10.34;53.34
54459;BME280;40368;49.350;8.152;2022-12-07T01:18:42;1003.1;;;10.34;53.48
54459;BME280;40368;49.350;8.152;2022-12-07T01:19:55;1003.1;;;10.33;53.34
54459;BME280;40368;49.350;8.152;2022-12-07T01:21:11;1003.1;;;10.31;53.26
54459;BME280;40368;49.350;8.152;2022-12-07T01:21:47;1003.1;;;10.33;53.47
54459;BME280;40368;49.350;8.152;2022-12-07T01:23:01;1003.2;;;10.29;53.43
54459;BME280;40368;49.350;8.152;2022-12-07T01:24:15;1003.1;;;10.26;53.45
54459;BME280;40368;49.350;8.152;2022-12-07T01:24:52;1003.1;;;10.27;53.35
54459;BME280;40368;49.350;8.152;2022-12-07T01:26:09;1003.2;;;10.25;53.37
54459;BME280;40368;49.350;8.152;2022-12-07T01:26:43;1003.2;;;10.25;53.52
54459;BME280;40368;49.350;8.152;2022-12-07T01:27:57;1003.2;;;10.22;53.58
54459;BME280;40368;49.350;8.152;2022-12-07T01:29:11;1003.1;;;10.17;53.62
54459;BME280;40368;49.350;8.152;2022-12-07T01:29:48;1003.2;;;10.18;52.81
54459;BME280;40368;49.350;8.152;2022-12-07T01:31:03;1003.2;;;10.17;53.5
54459;BME280;40368;49.350;8.152;2022-12-07T01:32:17;1003.2;;;10.21;52.93
54459;BME280;40368;49.350;8.152;2022-12-07T01:32:54;1003.2;;;10.2;53.63
54459;BME280;40368;49.350;8.152;2022-12-07T01:34:08;1003.2;;;10.14;53.64
54459;BME280;40368;49.350;8.152;2022-12-07T01:34:47;1003.2;;;10.14;53.05
54459;BME280;40368;49.350;8.152;2022-12-07T01:36:01;1003.2;;;10.16;53.28
54459;BME280;40368;49.350;8.152;2022-12-07T01:37:13;1003.2;;;10.17;53.14
54459;BME280;40368;49.350;8.152;2022-12-07T01:37:50;1003.2;;;10.18;52.74
54459;BME280;40368;49.350;8.152;2022-12-07T01:39:05;1003.2;;;10.06;52.67
54459;BME280;40368;49.350;8.152;2022-12-07T01:39:41;1003.2;;;10.14;52.4
54459;BME280;40368;49.350;8.152;2022-12-07T01:40:56;1003.1;;;10.07;53.35
54459;BME280;40368;49.350;8.152;2022-12-07T01:42:10;1003.1;;;10.13;52.88
54459;BME280;40368;49.350;8.152;2022-12-07T01:42:47;1003.2;;;10.12;53.59
54459;BME280;40368;49.350;8.152;2022-12-07T01:44:07;1003.1;;;10.12;52.94
54459;BME280;40368;49.350;8.152;2022-12-07T01:45:47;1003.1;;;10.1;53
54459;BME280;40368;49.350;8.152;2022-12-07T01:45:52;1003.1;;;10.1;53.37
54459;BME280;40368;49.350;8.152;2022-12-07T01:47:06;1003.1;;;10.08;53.12
54459;BME280;40368;49.350;8.152;2022-12-07T01:47:44;1003.1;;;10.1;53.4
54459;BME280;40368;49.350;8.152;2022-12-07T01:48:57;1003.1;;;10.06;52.91
54459;BME280;40368;49.350;8.152;2022-12-07T01:50:11;1003.1;;;10;53.7
54459;BME280;40368;49.350;8.152;2022-12-07T01:51:57;1003.1;;;10.04;53.55
54459;BME280;40368;49.350;8.152;2022-12-07T01:52:32;1003.1;;;9.99;53.53
54459;BME280;40368;49.350;8.152;2022-12-07T01:53:46;1003;;;10.03;53.68
54459;BME280;40368;49.350;8.152;2022-12-07T01:55:01;1003.1;;;10.05;53.48
54459;BME280;40368;49.350;8.152;2022-12-07T01:56:15;1003.1;;;10.03;53.75
54459;BME280;40368;49.350;8.152;2022-12-07T01:56:52;1003.1;;;10.03;53.65
54459;BME280;40368;49.350;8.152;2022-12-07T01:58:05;1003.1;;;10;53.38
54459;BME280;40368;49.350;8.152;2022-12-07T01:58:42;1003.1;;;10.02;54.29
54459;BME280;40368;49.350;8.152;2022-12-07T01:59:56;1003.1;;;9.99;53.29
54459;BME280;40368;49.350;8.152;2022-12-07T02:01:10;1003;;;9.93;53.79
54459;BME280;40368;49.350;8.152;2022-12-07T02:01:47;1003;;;9.96;53.85
54459;BME280;40368;49.350;8.152;2022-12-07T02:03:03;1003;;;9.87;53.31
54459;BME280;40368;49.350;8.152;2022-12-07T02:04:53;1003;;;9.85;53.8
54459;BME280;40368;49.350;8.152;2022-12-07T02:06:07;1003;;;9.81;53.84
54459;BME280;40368;49.350;8.152;2022-12-07T02:06:44;1003;;;9.81;53.74
54459;BME280;40368;49.350;8.152;2022-12-07T02:07:58;1003;;;9.8;53.58
54459;BME280;40368;49.350;8.152;2022-12-07T02:09:12;1003;;;9.79;53.25
54459;BME280;40368;49.350;8.152;2022-12-07T02:09:49;1003;;;9.79;53.55
54459;BME280;40368;49.350;8.152;2022-12-07T02:11:04;1003;;;9.76;53.2
54459;BME280;40368;49.350;8.152;2022-12-07T02:11:40;1003;;;9.76;53.81
54459;BME280;40368;49.350;8.152;2022-12-07T02:12:56;1003;;;9.68;53.87
54459;BME280;40368;49.350;8.152;2022-12-07T02:14:09;1002.9;;;9.66;53.93
54459;BME280;40368;49.350;8.152;2022-12-07T02:14:46;1003;;;9.71;53.68
54459;BME280;40368;49.350;8.152;2022-12-07T02:16:05;1003;;;9.81;54.15
54459;BME280;40368;49.350;8.152;2022-12-07T02:21:34;1003;;;10.02;53.28
54459;BME280;40368;49.350;8.152;2022-12-07T02:27:38;1003;;;10.12;51.74
54459;BME280;40368;49.350;8.152;2022-12-07T02:30:13;1002.9;;;10.1;52.81
54459;BME280;40368;49.350;8.152;2022-12-07T02:30:49;1003;;;9.85;53.38
54459;BME280;40368;49.350;8.152;2022-12-07T02:32:04;1002.9;;;10.03;52.28
54459;BME280;40368;49.350;8.152;2022-12-07T02:32:43;1002.9;;;10.09;51.95
54459;BME280;40368;49.350;8.152;2022-12-07T02:33:57;1002.9;;;10.05;53.01
54459;BME280;40368;49.350;8.152;2022-12-07T02:35:09;1002.7;;;10.02;52.8
54459;BME280;40368;49.350;8.152;2022-12-07T02:35:48;1002.9;;;10.08;52.67
54459;BME280;40368;49.350;8.152;2022-12-07T02:37:00;1002.8;;;10.07;52.2
54459;BME280;40368;49.350;8.152;2022-12-07T02:38:16;1002.8;;;10.02;51.97
54459;BME280;40368;49.350;8.152;2022-12-07T02:38:52;1002.8;;;10.04;51.84
54459;BME280;40368;49.350;8.152;2022-12-07T02:40:07;1002.8;;;9.97;52.1
54459;BME280;40368;49.350;8.152;2022-12-07T02:40:43;1002.8;;;9.97;52.85
54459;BME280;40368;49.350;8.152;2022-12-07T02:41:57;1002.8;;;9.97;52.81
54459;BME280;40368;49.350;8.152;2022-12-07T02:43:12;1002.8;;;9.95;52.29
54459;BME280;40368;49.350;8.152;2022-12-07T02:43:49;1002.8;;;9.97;52.51
54459;BME280;40368;49.350;8.152;2022-12-07T02:45:02;1002.8;;;9.93;53.12
54459;BME280;40368;49.350;8.152;2022-12-07T02:46:17;1002.8;;;9.99;53.1
54459;BME280;40368;49.350;8.152;2022-12-07T02:46:53;1002.8;;;9.96;52.81
54459;BME280;40368;49.350;8.152;2022-12-07T02:48:07;1002.8;;;10;52.77
54459;BME280;40368;49.350;8.152;2022-12-07T02:48:44;1002.8;;;10;52.92
54459;BME280;40368;49.350;8.152;2022-12-07T02:49:58;1002.8;;;9.99;52.29
54459;BME280;40368;49.350;8.152;2022-12-07T02:51:04;1002.8;;;10;52.72
54459;BME280;40368;49.350;8.152;2022-12-07T02:51:43;1002.8;;;9.99;52.5
54459;BME280;40368;49.350;8.152;2022-12-07T02:52:55;1002.7;;;9.97;52.69
54459;BME280;40368;49.350;8.152;2022-12-07T02:54:10;1002.7;;;9.93;52.84
54459;BME280;40368;49.350;8.152;2022-12-07T02:54:46;1002.7;;;9.97;51.68
54459;BME280;40368;49.350;8.152;2022-12-07T02:56:01;1002.7;;;9.97;52.51
54459;BME280;40368;49.350;8.152;2022-12-07T02:57:21;1002.7;;;10;52.13
54459;BME280;40368;49.350;8.152;2022-12-07T02:57:55;1002.7;;;9.99;52.05
54459;BME280;40368;49.350;8.152;2022-12-07T02:59:07;1002.7;;;10.05;52.22
54459;BME280;40368;49.350;8.152;2022-12-07T02:59:46;1002.7;;;10.02;52.24
54459;BME280;40368;49.350;8.152;2022-12-07T03:00:59;1002.8;;;10.09;51.58
54459;BME280;40368;49.350;8.152;2022-12-07T03:02:14;1002.7;;;10.1;52.08
54459;BME280;40368;49.350;8.152;2022-12-07T03:02:51;1002.8;;;10.09;51.12
54459;BME280;40368;49.350;8.152;2022-12-07T03:04:06;1002.7;;;10.16;52.25
54459;BME280;40368;49.350;8.152;2022-12-07T03:04:42;1002.7;;;10.13;52.23
54459;BME280;40368;49.350;8.152;2022-12-07T03:05:58;1002.7;;;10.21;51.92
54459;BME280;40368;49.350;8.152;2022-12-07T03:07:10;1002.8;;;10.21;50.79
54459;BME280;40368;49.350;8.152;2022-12-07T03:07:48;1002.8;;;10.22;51.8
54459;BME280;40368;49.350;8.152;2022-12-07T03:09:01;1002.8;;;10.14;51.17
54459;BME280;40368;49.350;8.152;2022-12-07T03:10:14;1002.7;;;10.07;51.46
54459;BME280;40368;49.350;8.152;2022-12-07T03:10:52;1002.7;;;10.1;50.52
54459;BME280;40368;49.350;8.152;2022-12-07T03:12:06;1002.7;;;10.05;51.68
54459;BME280;40368;49.350;8.152;2022-12-07T03:12:42;1002.7;;;10.07;51.75
54459;BME280;40368;49.350;8.152;2022-12-07T03:13:58;1002.7;;;10.07;52.39
54459;BME280;40368;49.350;8.152;2022-12-07T03:15:11;1002.7;;;10.07;52.15
54459;BME280;40368;49.350;8.152;2022-12-07T03:15:48;1002.7;;;10.09;51.72
54459;BME280;40368;49.350;8.152;2022-12-07T03:17:01;1002.7;;;10.07;52.2
54459;BME280;40368;49.350;8.152;2022-12-07T03:18:16;1002.6;;;10.1;52.18
54459;BME280;40368;49.350;8.152;2022-12-07T03:18:53;1002.7;;;10.08;52.19
54459;BME280;40368;49.350;8.152;2022-12-07T03:20:07;1002.6;;;10.02;52.25
54459;BME280;40368;49.350;8.152;2022-12-07T03:20:43;1002.6;;;10.06;51.6
54459;BME280;40368;49.350;8.152;2022-12-07T03:21:58;1002.6;;;10.02;52.53
54459;BME280;40368;49.350;8.152;2022-12-07T03:23:12;1002.6;;;9.97;52.22
54459;BME280;40368;49.350;8.152;2022-12-07T03:23:49;1002.6;;;10.01;52.42
54459;BME280;40368;49.350;8.152;2022-12-07T03:25:04;1002.6;;;9.91;52.23
54459;BME280;40368;49.350;8.152;2022-12-07T03:25:40;1002.5;;;9.93;52.54
54459;BME280;40368;49.350;8.152;2022-12-07T03:26:55;1002.5;;;9.87;52.52
54459;BME280;40368;49.350;8.152;2022-12-07T03:28:08;1002.5;;;9.85;52.24
54459;BME280;40368;49.350;8.152;2022-12-07T03:28:47;1002.5;;;9.87;51.95
54459;BME280;40368;49.350;8.152;2022-12-07T03:30:00;1002.5;;;9.82;52.75
54459;BME280;40368;49.350;8.152;2022-12-07T03:31:14;1002.5;;;9.85;52.38
54459;BME280;40368;49.350;8.152;2022-12-07T03:31:51;1002.6;;;9.83;52.73
54459;BME280;40368;49.350;8.152;2022-12-07T03:33:05;1002.5;;;9.93;52.38
54459;BME280;40368;49.350;8.152;2022-12-07T03:33:42;1002.5;;;9.89;52.53
54459;BME280;40368;49.350;8.152;2022-12-07T03:34:57;1002.5;;;9.97;51.44
54459;BME280;40368;49.350;8.152;2022-12-07T03:36:11;1002.5;;;9.93;51.48
54459;BME280;40368;49.350;8.152;2022-12-07T03:36:47;1002.5;;;9.97;52.28
54459;BME280;40368;49.350;8.152;2022-12-07T03:38:04;1002.5;;;9.96;52.45
54459;BME280;40368;49.350;8.152;2022-12-07T03:39:17;1002.5;;;10.03;52.6
54459;BME280;40368;49.350;8.152;2022-12-07T03:39:55;1002.5;;;9.99;52.01
54459;BME280;40368;49.350;8.152;2022-12-07T03:41:07;1002.5;;;10.13;52.11
54459;BME280;40368;49.350;8.152;2022-12-07T03:41:43;1002.5;;;10.09;52.04
54459;BME280;40368;49.350;8.152;2022-12-07T03:42:57;1002.5;;;10.13;52.08
54459;BME280;40368;49.350;8.152;2022-12-07T03:44:12;1002.5;;;10.14;51.68
54459;BME280;40368;49.350;8.152;2022-12-07T03:44:49;1002.5;;;10.14;50.65
54459;BME280;40368;49.350;8.152;2022-12-07T03:46:06;1002.5;;;10.18;51.16
54459;BME280;40368;49.350;8.152;2022-12-07T03:46:42;1002.5;;;10.14;51.53
54459;BME280;40368;49.350;8.152;2022-12-07T03:47:54;1002.5;;;10.18;50.94
54459;BME280;40368;49.350;8.152;2022-12-07T03:49:08;1002.4;;;10.17;51.43
54459;BME280;40368;49.350;8.152;2022-12-07T03:49:46;1002.5;;;10.17;51.29
54459;BME280;40368;49.350;8.152;2022-12-07T03:52:08;1002.4;;;10.22;51.38
54459;BME280;40368;49.350;8.152;2022-12-07T03:52:43;1002.4;;;10.22;51.72
54459;BME280;40368;49.350;8.152;2022-12-07T03:53:59;1002.3;;;10.22;51.41
54459;BME280;40368;49.350;8.152;2022-12-07T03:55:11;1002.4;;;10.21;51.09
54459;BME280;40368;49.350;8.152;2022-12-07T03:55:47;1002.3;;;10.22;51.7
54459;BME280;40368;49.350;8.152;2022-12-07T03:57:02;1002.4;;;10.21;51.54
54459;BME280;40368;49.350;8.152;2022-12-07T03:58:16;1002.5;;;10.21;51.47
54459;BME280;40368;49.350;8.152;2022-12-07T03:58:53;1002.4;;;10.2;51.43
54459;BME280;40368;49.350;8.152;2022-12-07T04:00:07;1002.4;;;10.18;51.56
54459;BME280;40368;49.350;8.152;2022-12-07T04:00:44;1002.4;;;10.18;50.78
54459;BME280;40368;49.350;8.152;2022-12-07T04:02:01;1002.4;;;10.18;51.7
54459;BME280;40368;49.350;8.152;2022-12-07T04:03:12;1002.3;;;10.14;51.44
54459;BME280;40368;49.350;8.152;2022-12-07T04:03:49;1002.4;;;10.18;50.69
54459;BME280;40368;49.350;8.152;2022-12-07T04:05:04;1002.4;;;10.14;51.46
54459;BME280;40368;49.350;8.152;2022-12-07T04:05:41;1002.4;;;10.13;51.76
54459;BME280;40368;49.350;8.152;2022-12-07T04:06:55;1002.3;;;10.1;51.6
54459;BME280;40368;49.350;8.152;2022-12-07T04:08:09;1002.1;;;9.97;51.71
54459;BME280;40368;49.350;8.152;2022-12-07T04:08:46;1002.3;;;10.09;51.52
54459;BME280;40368;49.350;8.152;2022-12-07T04:10:00;1002.3;;;10.07;51.69
54459;BME280;40368;49.350;8.152;2022-12-07T04:11:14;1002.3;;;10.05;50.46
54459;BME280;40368;49.350;8.152;2022-12-07T04:11:51;1002.2;;;10.08;51.71
54459;BME280;40368;49.350;8.152;2022-12-07T04:13:05;1002.3;;;10.06;51.45
54459;BME280;40368;49.350;8.152;2022-12-07T04:13:42;1002.3;;;10.03;51.77
54459;BME280;40368;49.350;8.152;2022-12-07T04:14:56;1002.4;;;10.09;51.53
54459;BME280;40368;49.350;8.152;2022-12-07T04:16:11;1002.4;;;10.12;51.53
54459;BME280;40368;49.350;8.152;2022-12-07T04:16:48;1002.4;;;10.12;51.87
54459;BME280;40368;49.350;8.152;2022-12-07T04:18:02;1002.4;;;10.14;51.05
54459;BME280;40368;49.350;8.152;2022-12-07T04:19:16;1002.4;;;10.2;51.67
54459;BME280;40368;49.350;8.152;2022-12-07T04:19:53;1002.4;;;10.18;51.03
54459;BME280;40368;49.350;8.152;2022-12-07T04:21:07;1002.3;;;10.18;50.21
54459;BME280;40368;49.350;8.152;2022-12-07T04:21:44;1002.3;;;10.18;50.87
54459;BME280;40368;49.350;8.152;2022-12-07T04:22:58;1002.3;;;10.05;49.88
54459;BME280;40368;49.350;8.152;2022-12-07T04:24:13;1002.3;;;9.95;50.49
54459;BME280;40368;49.350;8.152;2022-12-07T04:24:49;1002.3;;;9.96;50.62
54459;BME280;40368;49.350;8.152;2022-12-07T04:26:04;1002.3;;;10.04;50.44
54459;BME280;40368;49.350;8.152;2022-12-07T04:26:41;1002.3;;;9.99;51.48
54459;BME280;40368;49.350;8.152;2022-12-07T04:27:55;1002.3;;;10.1;51.33
54459;BME280;40368;49.350;8.152;2022-12-07T04:29:09;1002.1;;;10.12;51.63
54459;BME280;40368;49.350;8.152;2022-12-07T04:29:46;1002.3;;;10.16;51.78
54459;BME280;40368;49.350;8.152;2022-12-07T04:31:00;1002.3;;;10.22;50.57
54459;BME280;40368;49.350;8.152;2022-12-07T04:32:14;1002.3;;;10.22;51.28
54459;BME280;40368;49.350;8.152;2022-12-07T04:32:51;1002.3;;;10.25;50.52
54459;BME280;40368;49.350;8.152;2022-12-07T04:34:05;1002.3;;;10.18;50.43
54459;BME280;40368;49.350;8.152;2022-12-07T04:34:42;1002.4;;;10.22;50.64
54459;BME280;40368;49.350;8.152;2022-12-07T04:35:56;1002.3;;;10.18;51.42
54459;BME280;40368;49.350;8.152;2022-12-07T04:37:11;1002.3;;;10.22;51.04
54459;BME280;40368;49.350;8.152;2022-12-07T04:37:48;1002.3;;;10.21;51.4
54459;BME280;40368;49.350;8.152;2022-12-07T04:39:02;1002.3;;;10.22;51.42
54459;BME280;40368;49.350;8.152;2022-12-07T04:40:16;1002.3;;;10.12;50.55
54459;BME280;40368;49.350;8.152;2022-12-07T04:40:53;1002.3;;;10.18;49.85
54459;BME280;40368;49.350;8.152;2022-12-07T04:42:07;1002.3;;;10.01;50.05
54459;BME280;40368;49.350;8.152;2022-12-07T04:42:44;1002.3;;;10.07;50.96
54459;BME280;40368;49.350;8.152;2022-12-07T04:43:59;1002.3;;;9.96;51.15
54459;BME280;40368;49.350;8.152;2022-12-07T04:45:12;1002.3;;;9.85;51.02
54459;BME280;40368;49.350;8.152;2022-12-07T04:45:49;1002.3;;;9.91;51.02
54459;BME280;40368;49.350;8.152;2022-12-07T04:47:04;1002.4;;;9.71;50.75
54459;BME280;40368;49.350;8.152;2022-12-07T04:47:41;1002.4;;;9.79;50.63
54459;BME280;40368;49.350;8.152;2022-12-07T04:48:55;1002.3;;;9.64;51.27
54459;BME280;40368;49.350;8.152;2022-12-07T04:50:09;1002.2;;;9.47;51.02
54459;BME280;40368;49.350;8.152;2022-12-07T04:50:47;1002.3;;;9.58;51.29
54459;BME280;40368;49.350;8.152;2022-12-07T04:53:06;1002.2;;;9.47;51.36
54459;BME280;40368;49.350;8.152;2022-12-07T04:53:43;1002.3;;;9.53;51.57
54459;BME280;40368;49.350;8.152;2022-12-07T04:54:57;1002.2;;;9.46;52.11
54459;BME280;40368;49.350;8.152;2022-12-07T04:56:11;1002.2;;;9.45;51.87
54459;BME280;40368;49.350;8.152;2022-12-07T04:56:48;1002.2;;;9.46;51.93
54459;BME280;40368;49.350;8.152;2022-12-07T04:58:40;1002.1;;;9.52;52.19
54459;BME280;40368;49.350;8.152;2022-12-07T04:59:54;1002.1;;;9.62;51.75
54459;BME280;40368;49.350;8.152;2022-12-07T05:01:08;1002.2;;;9.68;52.1
54459;BME280;40368;49.350;8.152;2022-12-07T05:01:45;1002.2;;;9.63;51.91
54459;BME280;40368;49.350;8.152;2022-12-07T05:02:59;1002.2;;;9.71;51.87
54459;BME280;40368;49.350;8.152;2022-12-07T05:04:13;1002.2;;;9.66;51.8
54459;BME280;40368;49.350;8.152;2022-12-07T05:04:50;1002.2;;;9.72;51.67
54459;BME280;40368;49.350;8.152;2022-12-07T05:06:05;1002.2;;;9.68;52.61
54459;BME280;40368;49.350;8.152;2022-12-07T05:06:41;1002.1;;;9.64;52.74
54459;BME280;40368;49.350;8.152;2022-12-07T05:07:56;1002.2;;;9.76;52.71
54459;BME280;40368;49.350;8.152;2022-12-07T05:09:10;1002.2;;;9.75;52.36
54459;BME280;40368;49.350;8.152;2022-12-07T05:09:47;1002.2;;;9.77;52.68
54459;BME280;40368;49.350;8.152;2022-12-07T05:11:01;1002.2;;;9.68;52.29
54459;BME280;40368;49.350;8.152;2022-12-07T05:12:15;1002.2;;;9.59;52.62
54459;BME280;40368;49.350;8.152;2022-12-07T05:12:52;1002.2;;;9.6;52.74
54459;BME280;40368;49.350;8.152;2022-12-07T05:14:07;1002.2;;;9.66;52.91
54459;BME280;40368;49.350;8.152;2022-12-07T05:14:43;1002.2;;;9.59;53.05
54459;BME280;40368;49.350;8.152;2022-12-07T05:15:57;1002.2;;;9.7;52.38
54459;BME280;40368;49.350;8.152;2022-12-07T05:17:11;1002.1;;;9.7;52.09
54459;BME280;40368;49.350;8.152;2022-12-07T05:17:49;1002.2;;;9.72;52.28
54459;BME280;40368;49.350;8.152;2022-12-07T05:19:03;1002.2;;;9.63;52.44
54459;BME280;40368;49.350;8.152;2022-12-07T05:19:40;1002.2;;;9.68;52.71
54459;BME280;40368;49.350;8.152;2022-12-07T05:20:54;1002.2;;;9.59;52.89
54459;BME280;40368;49.350;8.152;2022-12-07T05:22:08;1002.1;;;9.57;52.39
54459;BME280;40368;49.350;8.152;2022-12-07T05:22:45;1002.1;;;9.62;52.5
54459;BME280;40368;49.350;8.152;2022-12-07T05:23:59;1002.1;;;9.54;52.26
54459;BME280;40368;49.350;8.152;2022-12-07T05:25:13;1002.1;;;9.45;53.2
54459;BME280;40368;49.350;8.152;2022-12-07T05:25:50;1002.1;;;9.49;52.88
54459;BME280;40368;49.350;8.152;2022-12-07T05:27:04;1002.1;;;9.39;53.11
54459;BME280;40368;49.350;8.152;2022-12-07T05:27:42;1002.1;;;9.43;53.12
54459;BME280;40368;49.350;8.152;2022-12-07T05:28:56;1002.1;;;9.38;53.4
54459;BME280;40368;49.350;8.152;2022-12-07T05:30:10;1002.1;;;9.35;53.31
54459;BME280;40368;49.350;8.152;2022-12-07T05:30:47;1002;;;9.35;53.24
54459;BME280;40368;49.350;8.152;2022-12-07T05:32:01;1002.1;;;9.33;53.58
54459;BME280;40368;49.350;8.152;2022-12-07T05:33:15;1002;;;9.29;53.49
54459;BME280;40368;49.350;8.152;2022-12-07T05:33:52;1002;;;9.32;53.35
54459;BME280;40368;49.350;8.152;2022-12-07T05:35:06;1002.1;;;9.32;54.46
54459;BME280;40368;49.350;8.152;2022-12-07T05:35:43;1002.1;;;9.29;53.62
54459;BME280;40368;49.350;8.152;2022-12-07T05:36:57;1002.1;;;9.34;54.1
54459;BME280;40368;49.350;8.152;2022-12-07T05:38:12;1002.1;;;9.31;53.65
54459;BME280;40368;49.350;8.152;2022-12-07T05:38:49;1002.1;;;9.33;53.51
54459;BME280;40368;49.350;8.152;2022-12-07T05:40:03;1002.1;;;9.29;53.79
54459;BME280;40368;49.350;8.152;2022-12-07T05:40:40;1002.1;;;9.31;53.65
54459;BME280;40368;49.350;8.152;2022-12-07T05:41:54;1002.1;;;9.31;53.67
54459;BME280;40368;49.350;8.152;2022-12-07T05:43:08;1002.1;;;9.29;53.83
54459;BME280;40368;49.350;8.152;2022-12-07T05:43:45;1002.1;;;9.29;54.11
54459;BME280;40368;49.350;8.152;2022-12-07T05:44:59;1002.1;;;9.34;54.25
54459;BME280;40368;49.350;8.152;2022-12-07T05:46:13;1002.1;;;9.49;53.63
54459;BME280;40368;49.350;8.152;2022-12-07T05:46:50;1002.1;;;9.43;53.82